Terminal Aerodrome Forecast
Issued by NWS

Home | Current Version | Previous Version | Text Only | Print | Product List | Glossary On
Versions: 1 2 3 4 5 6 7 8 9 10 11 12 13 14
000
FTUS43 KIND 221720
TAFHUF
TAF
KHUF 221720Z 2218/2318 17015G28KT P6SM VCSH BKN060
     FM222000 17012G26KT P6SM -SHRA BKN060
     FM222200 18008KT P6SM -SHRA OVC040
     FM230000 23007KT 4SM SHRA BR OVC030
     FM230200 31006KT 4SM SHRA BR OVC015
     FM230900 33006KT 4SM SHRA BR OVC008
     FM231200 34005KT 4SM BR OVC008=

USA.gov is the U.S. government's official web portal to all federal, state and local government web resources and services.